Minerva Georgia — SXUA — position and weather

sailwx.info

Track history (hours):
 
Tides and Currents Weather Stations Pressure Air Temp Water Temp Dewpoint Dewpoint Depression Visibility Wind Speed Wind Dir Waves Ship Positions

Minerva Georgia

Last reported at 2018-Jan-12 07:32 UTC. Time now 2018-Jan-21 06:59 UTC.
Position N 35°53' W 025°30'.
Warning: this ship's position is 8 days out of date.

Length 274 m; draft 14.9 m.

Type: Ship. MMSI: 240715000.

Date/timePositionNaut miles runAvg speedWind from/ knotsBaromVisibWave heightAir tempDewpointWater temp
2018-Jan-12 07:32N 35°53' W 025°30'013.3
2018-Jan-12 07:30N 35°53' W 025°29'611.9
2018-Jan-12 06:59N 35°53' W 025°22'611.9
2018-Jan-12 06:30N 35°53' W 025°14'612.0
2018-Jan-12 06:00N 35°53' W 025°07'612.0
2018-Jan-12 05:30N 35°53' W 024°60'612.0
2018-Jan-12 05:00N 35°53' W 024°52'612.3
2018-Jan-12 04:30N 35°53' W 024°45'612.1
2018-Jan-12 04:01N 35°53' W 024°37'612.4
2018-Jan-12 03:30N 35°53' W 024°30'612.5
2018-Jan-12 03:00N 35°53' W 024°22'1012.4
2018-Jan-12 02:10N 35°53' W 024°09'  
2018-Jan-08 21:45N 35°58' W 005°32'311.7
2018-Jan-08 21:31N 35°59' W 005°29'611.3
2018-Jan-08 21:00N 36°01' W 005°22'611.2
2018-Jan-08 20:26N 36°02' W 005°14'4112.4
2018-Jan-08 17:08N 36°04' W 004°24'211.6
2018-Jan-08 17:00N 36°04' W 004°22'611.5
2018-Jan-08 16:30N 36°04' W 004°15'611.8
2018-Jan-08 16:00N 36°04' W 004°07'611.9
2018-Jan-08 15:31N 36°04' W 003°60'611.6
2018-Jan-08 15:00N 36°04' W 003°53'611.9
2018-Jan-08 14:31N 36°05' W 003°45'612.6
2018-Jan-08 14:01N 36°05' W 003°38'713.1
2018-Jan-08 13:30N 36°05' W 003°29'612.7
2018-Jan-08 13:01N 36°05' W 003°22'  
2018-Jan-04 23:36N 36°07' W 005°15'1 9.7
2018-Jan-04 23:30N 36°07' W 005°16'1 2.6
2018-Jan-04 22:59N 36°06' W 005°17'1 2.6
2018-Jan-04 22:27N 36°06' W 005°15'1 1.8
2018-Jan-04 22:00N 36°07' W 005°15'4 0.7
2018-Jan-04 15:19N 36°06' W 005°20'3 0.1
2018-Jan-03 20:07N 36°07' W 005°23'0 0.1
2018-Jan-03 19:21N 36°07' W 005°23'2 3.7
2018-Jan-03 18:56N 36°06' W 005°22'1 1.8
2018-Jan-03 18:25N 36°05' W 005°21'2 4.7
2018-Jan-03 18:00N 36°05' W 005°18'5 7.1
2018-Jan-03 17:21N 36°06' W 005°13'5 0.5
2018-Jan-03 05:50N 36°08' W 005°07'2 3.9
2018-Jan-03 05:23N 36°07' W 005°09'3 7.1
2018-Jan-03 04:59N 36°06' W 005°12'510.6
2018-Jan-03 04:30N 36°03' W 005°17'713.7
2018-Jan-03 04:00N 35°59' W 005°24'  
Track history (hours):
 
Tides and Currents Weather Stations Pressure Air Temp Water Temp Dewpoint Dewpoint Depression Visibility Wind Speed Wind Dir Waves Ship Positions

Minerva Georgia

Last reported at 2018-Jan-12 07:32 UTC. Time now 2018-Jan-21 06:59 UTC.
Position N 35°53' W 025°30'.
Warning: this ship's position is 8 days out of date.

Length 274 m; draft 14.9 m.

Type: Ship. MMSI: 240715000.

Date/timePositionNaut miles runAvg speedWind from/ knotsBaromVisibWave heightAir tempDewpointWater temp
2018-Jan-12 07:32N 35°53' W 025°30'013.3
2018-Jan-12 07:30N 35°53' W 025°29'611.9
2018-Jan-12 06:59N 35°53' W 025°22'611.9
2018-Jan-12 06:30N 35°53' W 025°14'612.0
2018-Jan-12 06:00N 35°53' W 025°07'612.0
2018-Jan-12 05:30N 35°53' W 024°60'612.0
2018-Jan-12 05:00N 35°53' W 024°52'612.3
2018-Jan-12 04:30N 35°53' W 024°45'612.1
2018-Jan-12 04:01N 35°53' W 024°37'612.4
2018-Jan-12 03:30N 35°53' W 024°30'612.5
2018-Jan-12 03:00N 35°53' W 024°22'1012.4
2018-Jan-12 02:10N 35°53' W 024°09'  
2018-Jan-08 21:45N 35°58' W 005°32'311.7
2018-Jan-08 21:31N 35°59' W 005°29'611.3
2018-Jan-08 21:00N 36°01' W 005°22'611.2
2018-Jan-08 20:26N 36°02' W 005°14'4112.4
2018-Jan-08 17:08N 36°04' W 004°24'211.6
2018-Jan-08 17:00N 36°04' W 004°22'611.5
2018-Jan-08 16:30N 36°04' W 004°15'611.8
2018-Jan-08 16:00N 36°04' W 004°07'611.9
2018-Jan-08 15:31N 36°04' W 003°60'611.6
2018-Jan-08 15:00N 36°04' W 003°53'611.9
2018-Jan-08 14:31N 36°05' W 003°45'612.6
2018-Jan-08 14:01N 36°05' W 003°38'713.1
2018-Jan-08 13:30N 36°05' W 003°29'612.7
2018-Jan-08 13:01N 36°05' W 003°22'  
2018-Jan-04 23:36N 36°07' W 005°15'1 9.7
2018-Jan-04 23:30N 36°07' W 005°16'1 2.6
2018-Jan-04 22:59N 36°06' W 005°17'1 2.6
2018-Jan-04 22:27N 36°06' W 005°15'1 1.8
2018-Jan-04 22:00N 36°07' W 005°15'4 0.7
2018-Jan-04 15:19N 36°06' W 005°20'3 0.1
2018-Jan-03 20:07N 36°07' W 005°23'0 0.1
2018-Jan-03 19:21N 36°07' W 005°23'2 3.7
2018-Jan-03 18:56N 36°06' W 005°22'1 1.8
2018-Jan-03 18:25N 36°05' W 005°21'2 4.7
2018-Jan-03 18:00N 36°05' W 005°18'5 7.1
2018-Jan-03 17:21N 36°06' W 005°13'5 0.5
2018-Jan-03 05:50N 36°08' W 005°07'2 3.9
2018-Jan-03 05:23N 36°07' W 005°09'3 7.1
2018-Jan-03 04:59N 36°06' W 005°12'510.6
2018-Jan-03 04:30N 36°03' W 005°17'713.7
2018-Jan-03 04:00N 35°59' W 005°24'  

Dump ship's entire track history